Time;durP1;ratioP1;P1;durP2;ratioP2;P2;SDS_P1;SDS_P2;PMS_P1;PMS_P2;Temp;Humidity;BMP_temperature;BMP_pressure;BME280_temperature;BME280_humidity;BME280_pressure;Samples;Min_cycle;Max_cycle;Signal;HPM_P1;HPM_P2
2024/01/21 00:00:12;;;;;;;13.80;7.75;;;0.10;78.50;;;;;;5012810;28;20034;-80
2024/01/21 00:02:38;;;;;;;12.60;8.02;;;0.20;78.30;;;;;;4997148;28;20041;-80
2024/01/21 00:05:04;;;;;;;12.93;8.18;;;0.20;78.60;;;;;;4996131;28;20057;-81
2024/01/21 00:07:30;;;;;;;14.77;8.18;;;0.20;78.20;;;;;;4996198;28;20410;-79
2024/01/21 00:09:55;;;;;;;14.60;9.18;;;0.20;78.10;;;;;;4979869;28;20041;-80
2024/01/21 00:12:21;;;;;;;12.90;7.85;;;0.20;78.20;;;;;;4996290;28;20045;-81
2024/01/21 00:14:47;;;;;;;12.45;7.75;;;0.20;78.60;;;;;;4995815;28;20125;-79
2024/01/21 00:17:13;;;;;;;12.55;8.43;;;0.20;78.70;;;;;;4996349;28;20045;-80
2024/01/21 00:19:39;;;;;;;12.32;8.45;;;0.10;78.70;;;;;;4995984;28;20490;-79
2024/01/21 00:22:05;;;;;;;12.98;8.05;;;0.10;78.60;;;;;;4980048;28;20041;-79
2024/01/21 00:24:31;;;;;;;14.88;8.10;;;0.10;78.60;;;;;;5012211;28;20046;-81
2024/01/21 00:26:57;;;;;;;13.88;7.70;;;0.10;78.70;;;;;;5012243;28;20042;-80
2024/01/21 00:29:23;;;;;;;12.25;7.95;;;0.10;78.60;;;;;;4995842;28;20048;-79
2024/01/21 00:31:48;;;;;;;11.30;7.70;;;0.10;78.80;;;;;;4995865;28;20065;-81
2024/01/21 00:34:14;;;;;;;12.93;7.75;;;0.10;78.50;;;;;;4979513;28;20383;-80
2024/01/21 00:36:40;;;;;;;12.80;7.93;;;0.10;78.40;;;;;;5012319;28;20073;-81
2024/01/21 00:39:06;;;;;;;12.70;7.75;;;0.10;78.40;;;;;;4979869;28;20445;-80
2024/01/21 00:41:31;;;;;;;12.13;8.20;;;0.10;77.90;;;;;;4995966;28;20553;-79
2024/01/21 00:43:57;;;;;;;11.70;7.78;;;0.10;78.20;;;;;;4995593;28;20509;-79
2024/01/21 00:46:23;;;;;;;12.77;7.47;;;0.10;78.00;;;;;;4995720;28;20406;-79
2024/01/21 00:48:48;;;;;;;14.18;8.18;;;0.10;78.30;;;;;;4995631;28;20140;-79
2024/01/21 00:51:14;;;;;;;13.68;8.80;;;0.10;78.10;;;;;;5011965;28;20037;-80
2024/01/21 00:53:40;;;;;;;12.82;8.00;;;0.10;77.60;;;;;;4995486;28;20044;-81
2024/01/21 00:56:06;;;;;;;9.93;7.25;;;0.10;77.40;;;;;;4996242;28;20033;-79
2024/01/21 00:58:31;;;;;;;11.02;6.97;;;0.10;77.90;;;;;;4985590;28;20092;-81
2024/01/21 01:00:57;;;;;;;13.68;7.45;;;0.10;78.20;;;;;;5002083;28;20277;-80
2024/01/21 01:03:24;;;;;;;11.50;7.05;;;0.10;78.30;;;;;;5018069;28;20045;-78
2024/01/21 01:05:50;;;;;;;10.75;6.90;;;0.10;78.20;;;;;;5018296;28;20522;-80
2024/01/21 01:08:17;;;;;;;12.43;7.65;;;0.10;78.10;;;;;;5018454;28;20498;-79
2024/01/21 01:10:43;;;;;;;13.02;8.02;;;0.10;78.50;;;;;;4986175;28;20438;-78
2024/01/21 01:13:09;;;;;;;12.15;7.38;;;0.10;78.70;;;;;;5001916;28;20038;-80
2024/01/21 01:15:35;;;;;;;10.57;7.55;;;0.00;78.80;;;;;;5002146;28;20096;-79
2024/01/21 01:18:02;;;;;;;13.32;7.97;;;0.00;78.90;;;;;;5018234;28;20553;-78
2024/01/21 01:20:27;;;;;;;13.35;7.50;;;0.00;79.00;;;;;;5002072;28;20092;-79
2024/01/21 01:22:53;;;;;;;12.95;7.47;;;0.00;78.80;;;;;;5018089;28;20046;-81
2024/01/21 01:25:19;;;;;;;10.30;6.93;;;0.10;78.70;;;;;;4985772;28;20045;-78
2024/01/21 01:27:45;;;;;;;11.20;7.57;;;0.10;78.60;;;;;;5001774;28;20501;-79
2024/01/21 01:30:11;;;;;;;12.20;7.63;;;0.10;78.30;;;;;;5001722;28;20041;-81
2024/01/21 01:32:36;;;;;;;10.93;6.75;;;0.10;77.80;;;;;;5001661;28;20073;-79
2024/01/21 01:35:04;;;;;;;10.20;6.82;;;0.10;77.30;;;;;;5018057;28;20410;-79
2024/01/21 01:37:30;;;;;;;11.88;7.25;;;0.10;77.50;;;;;;4986388;28;20080;-81
2024/01/21 01:39:56;;;;;;;13.30;7.88;;;0.10;76.30;;;;;;5018051;28;20649;-79
2024/01/21 01:42:22;;;;;;;12.82;6.30;;;0.20;76.90;;;;;;5001565;28;20041;-81
2024/01/21 01:44:47;;;;;;;9.82;7.05;;;0.20;76.80;;;;;;4985488;28;20600;-79
2024/01/21 01:47:13;;;;;;;11.52;6.18;;;0.20;76.20;;;;;;5001785;28;20045;-82
2024/01/21 01:49:41;;;;;;;8.88;6.57;;;0.20;75.90;;;;;;5018009;28;20044;-81
2024/01/21 01:52:10;;;;;;;9.30;6.50;;;0.20;75.40;;;;;;4985713;28;20401;-79
2024/01/21 01:54:39;;;;;;;9.75;6.57;;;0.20;74.60;;;;;;5017790;28;20068;-80
2024/01/21 01:57:07;;;;;;;9.88;5.72;;;0.20;74.20;;;;;;5001799;28;20494;-79
2024/01/21 01:59:34;;;;;;;9.68;5.88;;;0.20;74.80;;;;;;5001522;28;20121;-78
2024/01/21 02:02:00;;;;;;;9.48;5.82;;;0.30;73.00;;;;;;5018099;28;20137;-81
2024/01/21 02:04:26;;;;;;;8.48;6.25;;;0.30;73.80;;;;;;5017506;28;20068;-79
2024/01/21 02:06:52;;;;;;;8.85;6.63;;;0.30;72.30;;;;;;5017802;28;20045;-81
2024/01/21 02:09:18;;;;;;;7.70;6.00;;;0.30;73.40;;;;;;5015002;28;20096;-81
2024/01/21 02:11:44;;;;;;;9.65;6.00;;;0.30;72.90;;;;;;4998426;28;20506;-79
2024/01/21 02:14:10;;;;;;;11.40;5.72;;;0.30;72.40;;;;;;5014539;28;20125;-80
2024/01/21 02:16:36;;;;;;;10.00;5.60;;;0.20;72.80;;;;;;5014609;28;20125;-81
2024/01/21 02:19:06;;;;;;;9.85;5.07;;;0.20;72.40;;;;;;4982084;28;20141;-79
2024/01/21 02:21:32;;;;;;;9.25;5.60;;;0.20;72.50;;;;;;5014456;28;20516;-81
2024/01/21 02:23:57;;;;;;;10.55;6.00;;;0.20;72.20;;;;;;5014609;28;20133;-78
2024/01/21 02:26:23;;;;;;;9.75;6.25;;;0.30;72.70;;;;;;4981916;28;20482;-81
2024/01/21 02:28:49;;;;;;;11.82;6.07;;;0.30;72.90;;;;;;5014311;28;20077;-78
2024/01/21 02:31:14;;;;;;;7.30;5.22;;;0.30;72.30;;;;;;4997948;28;20084;-79
2024/01/21 02:33:40;;;;;;;8.73;5.88;;;0.30;72.30;;;;;;4998157;28;20033;-79
2024/01/21 02:36:06;;;;;;;8.43;5.00;;;0.30;72.20;;;;;;5014259;28;20494;-79
2024/01/21 02:38:32;;;;;;;9.73;6.07;;;0.30;72.10;;;;;;4981668;28;20080;-79
2024/01/21 02:40:57;;;;;;;8.35;5.30;;;0.30;72.30;;;;;;4981633;28;20089;-82
2024/01/21 02:43:23;;;;;;;10.27;6.10;;;0.30;73.00;;;;;;5014037;28;20038;-80
2024/01/21 02:45:49;;;;;;;9.43;5.65;;;0.30;73.30;;;;;;4997757;28;20402;-81
2024/01/21 02:48:14;;;;;;;8.10;5.70;;;0.30;72.80;;;;;;4981513;28;20076;-79
2024/01/21 02:50:40;;;;;;;7.85;5.00;;;0.40;72.90;;;;;;4965670;28;20042;-80
2024/01/21 02:53:06;;;;;;;8.07;5.88;;;0.30;73.10;;;;;;4981334;28;20437;-82
2024/01/21 02:55:31;;;;;;;10.15;6.32;;;0.30;73.20;;;;;;4997856;28;20044;-80
2024/01/21 02:57:57;;;;;;;7.60;5.45;;;0.30;72.70;;;;;;5014051;28;20040;-80
2024/01/21 03:00:23;;;;;;;9.73;5.07;;;0.30;72.40;;;;;;5013983;28;20056;-79
2024/01/21 03:02:50;;;;;;;9.80;6.30;;;0.30;73.10;;;;;;5013704;28;20500;-82
2024/01/21 03:05:16;;;;;;;10.35;5.85;;;0.30;72.90;;;;;;4981505;28;20112;-80
2024/01/21 03:07:42;;;;;;;9.10;5.63;;;0.30;72.80;;;;;;4997307;28;20050;-80
2024/01/21 03:10:07;;;;;;;8.50;6.07;;;0.40;72.20;;;;;;4965017;28;20066;-79
2024/01/21 03:12:36;;;;;;;10.40;6.30;;;0.40;72.70;;;;;;5013501;28;20522;-81
2024/01/21 03:15:03;;;;;;;9.00;5.72;;;0.40;72.30;;;;;;4965682;28;20033;-79
2024/01/21 03:17:29;;;;;;;9.98;5.95;;;0.40;72.00;;;;;;5013631;28;20434;-80
2024/01/21 03:19:54;;;;;;;9.77;5.93;;;0.40;72.10;;;;;;4997123;28;20046;-79
2024/01/21 03:22:20;;;;;;;10.23;5.43;;;0.40;71.50;;;;;;4997100;28;20042;-81
2024/01/21 03:24:46;;;;;;;9.75;5.82;;;0.40;72.00;;;;;;4997031;28;20517;-78
2024/01/21 03:27:13;;;;;;;11.65;6.38;;;0.40;71.60;;;;;;4980744;28;20096;-79
2024/01/21 03:29:39;;;;;;;7.60;5.18;;;0.40;72.20;;;;;;4997127;28;20049;-80
2024/01/21 03:32:05;;;;;;;11.30;6.05;;;0.40;71.70;;;;;;5013136;28;20038;-79
2024/01/21 03:34:31;;;;;;;9.32;5.35;;;0.40;71.20;;;;;;4980812;28;20033;-81
2024/01/21 03:36:56;;;;;;;7.57;5.50;;;0.30;71.80;;;;;;4996794;28;20042;-79
2024/01/21 03:39:22;;;;;;;10.07;5.82;;;0.40;71.50;;;;;;5013073;28;20096;-80
2024/01/21 03:41:48;;;;;;;9.88;5.72;;;0.40;71.70;;;;;;4996741;28;20046;-82
2024/01/21 03:44:13;;;;;;;8.82;6.15;;;0.40;72.30;;;;;;5012853;28;20092;-80
2024/01/21 03:46:39;;;;;;;9.27;5.85;;;0.40;72.00;;;;;;4996526;28;20101;-80
2024/01/21 03:49:05;;;;;;;10.85;6.28;;;0.40;71.60;;;;;;4980257;28;20119;-81
2024/01/21 03:51:30;;;;;;;9.00;5.80;;;0.30;72.00;;;;;;4980329;28;20038;-80
2024/01/21 03:53:56;;;;;;;8.00;4.13;;;0.40;72.10;;;;;;4980495;28;20037;-82
2024/01/21 03:56:22;;;;;;;9.15;5.35;;;0.40;72.00;;;;;;4980301;28;20495;-80
2024/01/21 03:58:47;;;;;;;7.47;5.05;;;0.50;71.10;;;;;;5012628;28;20073;-82
2024/01/21 04:01:13;;;;;;;7.40;4.60;;;0.50;70.70;;;;;;5012609;28;20130;-79
2024/01/21 04:03:39;;;;;;;7.00;4.20;;;0.60;70.30;;;;;;4979891;28;20057;-78
2024/01/21 04:06:04;;;;;;;7.30;4.75;;;0.60;69.90;;;;;;5012743;28;20053;-81
2024/01/21 04:08:30;;;;;;;8.38;5.18;;;0.60;69.90;;;;;;5012465;28;20045;-80
2024/01/21 04:10:56;;;;;;;7.15;4.25;;;0.70;69.70;;;;;;5012485;28;20125;-82
2024/01/21 04:13:21;;;;;;;9.93;4.38;;;0.70;70.70;;;;;;4996304;28;20049;-81
2024/01/21 04:15:47;;;;;;;6.38;4.22;;;0.70;69.80;;;;;;5012420;28;20125;-79
2024/01/21 04:18:13;;;;;;;7.03;5.07;;;0.70;69.00;;;;;;4996293;28;20042;-80
2024/01/21 04:20:38;;;;;;;7.75;4.18;;;0.70;70.10;;;;;;4996138;28;20536;-78
2024/01/21 04:23:04;;;;;;;6.00;4.13;;;0.70;69.90;;;;;;5012393;28;20225;-79
2024/01/21 04:25:30;;;;;;;6.75;4.13;;;0.70;68.70;;;;;;5012475;28;20073;-81
2024/01/21 04:27:56;;;;;;;8.93;4.15;;;0.80;69.00;;;;;;4995900;28;20040;-80
2024/01/21 04:30:21;;;;;;;7.60;4.78;;;0.80;69.40;;;;;;4995762;28;20052;-82
2024/01/21 04:32:47;;;;;;;5.45;4.00;;;0.80;69.30;;;;;;4994958;28;20073;-80
2024/01/21 04:35:13;;;;;;;8.10;4.20;;;0.80;69.30;;;;;;4995839;28;20045;-81
2024/01/21 04:37:39;;;;;;;6.40;4.00;;;0.80;69.60;;;;;;5012060;28;20042;-80
2024/01/21 04:40:05;;;;;;;6.28;4.20;;;0.80;69.00;;;;;;4995788;28;20073;-81
2024/01/21 04:42:31;;;;;;;6.85;4.43;;;0.80;69.40;;;;;;4979440;28;20041;-79
2024/01/21 04:44:57;;;;;;;6.28;4.03;;;0.80;69.60;;;;;;4995651;28;20046;-80
2024/01/21 04:47:23;;;;;;;6.90;3.70;;;0.80;69.60;;;;;;4995625;28;20045;-81
2024/01/21 04:49:48;;;;;;;7.03;4.00;;;0.80;69.30;;;;;;4995468;28;20049;-79
2024/01/21 04:52:14;;;;;;;7.38;4.15;;;0.80;69.20;;;;;;4979589;28;20041;-81
2024/01/21 04:54:40;;;;;;;7.45;4.93;;;0.80;69.40;;;;;;4995558;28;20038;-78
2024/01/21 04:57:05;;;;;;;6.05;3.47;;;0.80;68.60;;;;;;5012170;28;20048;-80
2024/01/21 04:59:31;;;;;;;6.15;3.60;;;0.90;68.50;;;;;;4979620;28;20049;-81
2024/01/21 05:01:56;;;;;;;5.95;3.67;;;1.00;68.60;;;;;;4995531;28;20041;-81
2024/01/21 05:04:22;;;;;;;7.22;4.20;;;1.00;68.30;;;;;;4995107;28;20096;-82
2024/01/21 05:06:48;;;;;;;4.95;3.22;;;1.10;67.50;;;;;;5012104;28;20438;-81
2024/01/21 05:09:14;;;;;;;7.43;4.25;;;1.10;67.80;;;;;;4995420;28;20478;-81
2024/01/21 05:11:39;;;;;;;5.47;3.13;;;1.10;68.00;;;;;;4963247;28;20048;-82
2024/01/21 05:14:05;;;;;;;6.97;3.97;;;1.10;68.30;;;;;;4995424;28;20049;-82
2024/01/21 05:16:30;;;;;;;7.45;3.38;;;1.10;67.50;;;;;;5011677;28;20092;-78
2024/01/21 05:18:56;;;;;;;6.43;3.67;;;1.10;68.10;;;;;;5011917;28;20046;-79
2024/01/21 05:21:22;;;;;;;5.70;3.30;;;1.10;67.60;;;;;;5011618;28;20041;-78
2024/01/21 05:23:50;;;;;;;6.38;3.28;;;1.10;68.00;;;;;;5011525;28;20046;-82
2024/01/21 05:26:16;;;;;;;5.68;3.13;;;1.10;67.30;;;;;;4995295;28;20080;-80
2024/01/21 05:28:41;;;;;;;5.10;3.55;;;1.20;68.40;;;;;;5011832;28;20132;-81
2024/01/21 05:31:07;;;;;;;7.20;3.58;;;1.20;67.10;;;;;;4979160;28;20613;-82
2024/01/21 05:33:34;;;;;;;6.45;3.65;;;1.20;66.70;;;;;;5011410;28;20049;-80
2024/01/21 05:35:59;;;;;;;8.98;3.72;;;1.20;66.40;;;;;;5011394;28;20494;-82
2024/01/21 05:38:25;;;;;;;7.97;2.83;;;1.30;66.90;;;;;;4979025;28;20052;-80
2024/01/21 05:40:51;;;;;;;7.82;3.55;;;1.30;66.10;;;;;;4995207;28;20483;-81
2024/01/21 05:43:16;;;;;;;3.90;2.83;;;1.40;66.30;;;;;;4996667;28;20061;-81
2024/01/21 05:45:42;;;;;;;5.88;3.08;;;1.40;66.50;;;;;;5015226;28;20044;-80
2024/01/21 05:48:08;;;;;;;7.03;3.15;;;1.50;65.90;;;;;;4998797;28;20121;-82
2024/01/21 05:50:34;;;;;;;4.80;3.10;;;1.50;65.60;;;;;;4998777;28;20046;-82
2024/01/21 05:53:00;;;;;;;6.80;3.40;;;1.50;64.40;;;;;;4998862;28;20044;-80
2024/01/21 05:55:25;;;;;;;6.15;3.63;;;1.60;64.50;;;;;;5014943;28;20034;-80
2024/01/21 05:57:52;;;;;;;5.97;3.17;;;1.60;64.40;;;;;;4982462;28;20042;-82
2024/01/21 06:00:17;;;;;;;5.47;3.40;;;1.60;64.90;;;;;;4982464;28;20048;-81
2024/01/21 06:02:44;;;;;;;8.95;3.70;;;1.60;64.50;;;;;;4998363;28;20046;-80
2024/01/21 06:05:10;;;;;;;5.68;3.50;;;1.60;64.50;;;;;;5014627;28;20116;-82
2024/01/21 06:07:36;;;;;;;5.85;3.63;;;1.60;65.10;;;;;;4998538;28;20038;-80
2024/01/21 06:10:02;;;;;;;4.65;3.40;;;1.60;66.00;;;;;;5014591;28;20049;-82
2024/01/21 06:12:27;;;;;;;5.32;3.35;;;1.60;65.80;;;;;;4998393;28;20078;-82
2024/01/21 06:14:53;;;;;;;5.45;3.28;;;1.60;65.90;;;;;;4998396;28;20077;-79
2024/01/21 06:17:19;;;;;;;5.47;3.75;;;1.50;65.00;;;;;;4982391;28;20041;-81
2024/01/21 06:19:44;;;;;;;8.30;4.40;;;1.60;65.80;;;;;;5014607;28;20402;-80
2024/01/21 06:22:10;;;;;;;6.05;3.70;;;1.50;66.70;;;;;;5014645;28;20044;-79
2024/01/21 06:24:37;;;;;;;4.95;3.75;;;1.50;66.40;;;;;;4998129;28;20406;-80
2024/01/21 06:27:03;;;;;;;7.40;4.30;;;1.50;67.00;;;;;;4998135;28;20116;-81
2024/01/21 06:29:29;;;;;;;5.32;3.05;;;1.40;66.60;;;;;;4997998;28;20077;-80
2024/01/21 06:31:55;;;;;;;7.45;4.05;;;1.40;67.20;;;;;;5014290;28;20127;-82
2024/01/21 06:34:21;;;;;;;8.63;4.45;;;1.40;67.30;;;;;;5014501;28;20053;-82
2024/01/21 06:36:47;;;;;;;7.53;4.03;;;1.40;67.50;;;;;;4997820;28;20038;-80
2024/01/21 06:39:12;;;;;;;6.05;3.95;;;1.30;67.20;;;;;;5014267;28;20088;-83
2024/01/21 06:41:39;;;;;;;7.07;3.97;;;1.30;67.80;;;;;;4997862;28;20103;-81
2024/01/21 06:44:05;;;;;;;6.82;4.40;;;1.30;68.20;;;;;;4997975;28;20049;-81
2024/01/21 06:46:30;;;;;;;8.63;4.47;;;1.30;68.80;;;;;;4997730;28;20486;-80
2024/01/21 06:48:56;;;;;;;6.57;4.22;;;1.30;69.20;;;;;;4997395;28;20046;-82
2024/01/21 06:51:32;;;;;;;7.50;4.10;;;1.30;69.10;;;;;;4997794;28;20038;-80
2024/01/21 06:54:02;;;;;;;7.43;4.38;;;1.20;69.40;;;;;;5013583;28;20042;-82
2024/01/21 06:56:27;;;;;;;7.82;4.63;;;1.20;69.60;;;;;;5013761;28;20050;-78
2024/01/21 06:58:54;;;;;;;6.38;4.50;;;1.20;69.70;;;;;;4997729;28;20376;-82
2024/01/21 07:01:19;;;;;;;7.10;3.90;;;1.20;69.50;;;;;;5013749;28;20046;-80
2024/01/21 07:03:45;;;;;;;9.07;5.22;;;1.20;69.60;;;;;;4980948;28;20058;-78
2024/01/21 07:06:11;;;;;;;6.63;4.43;;;1.20;69.70;;;;;;5013680;28;20061;-80
2024/01/21 07:08:38;;;;;;;7.78;4.32;;;1.20;70.20;;;;;;5013567;28;20046;-79
2024/01/21 07:11:10;;;;;;;6.68;4.05;;;1.30;69.90;;;;;;5013507;28;20034;-80
2024/01/21 07:13:36;;;;;;;8.70;4.35;;;1.30;70.10;;;;;;4997048;28;20045;-81
2024/01/21 07:16:03;;;;;;;6.70;4.22;;;1.30;70.00;;;;;;4996947;28;20123;-78
2024/01/21 07:18:28;;;;;;;8.75;5.00;;;1.30;69.50;;;;;;5013416;28;20037;-81
2024/01/21 07:20:54;;;;;;;7.35;4.50;;;1.30;70.10;;;;;;4997068;28;20038;-81
2024/01/21 07:23:20;;;;;;;7.90;4.57;;;1.30;70.00;;;;;;4980769;28;20129;-81
2024/01/21 07:25:49;;;;;;;7.28;4.45;;;1.40;70.40;;;;;;4980647;28;20045;-81
2024/01/21 07:28:15;;;;;;;8.02;4.82;;;1.30;70.70;;;;;;5003122;28;20042;-79
2024/01/21 07:30:41;;;;;;;8.38;5.18;;;1.30;70.50;;;;;;5012521;28;20096;-79
2024/01/21 07:33:07;;;;;;;7.40;4.68;;;1.30;70.60;;;;;;5012427;28;20038;-79
2024/01/21 07:35:32;;;;;;;7.15;3.88;;;1.40;71.10;;;;;;5004479;28;20041;-80
2024/01/21 07:37:58;;;;;;;8.75;4.57;;;1.40;71.00;;;;;;5006283;28;20474;-80
2024/01/21 07:40:24;;;;;;;7.88;5.03;;;1.40;70.70;;;;;;5012582;28;20362;-80
2024/01/21 07:42:50;;;;;;;10.43;4.75;;;1.40;70.70;;;;;;4996454;28;20390;-80
2024/01/21 07:45:15;;;;;;;8.95;4.75;;;1.50;70.90;;;;;;5013057;28;20037;-81
2024/01/21 07:47:41;;;;;;;7.68;5.05;;;1.50;70.80;;;;;;5013064;28;20038;-81
2024/01/21 07:50:07;;;;;;;8.13;4.88;;;1.50;70.50;;;;;;4995954;28;20042;-82
2024/01/21 07:52:33;;;;;;;10.15;5.10;;;1.50;70.60;;;;;;4995780;28;20490;-79
2024/01/21 07:54:59;;;;;;;8.18;4.88;;;1.60;70.50;;;;;;5012673;28;20042;-79
2024/01/21 07:57:24;;;;;;;10.27;5.57;;;1.60;70.80;;;;;;4996582;28;20045;-81
2024/01/21 07:59:50;;;;;;;7.68;4.82;;;1.60;72.30;;;;;;5012728;28;20045;-79
2024/01/21 08:02:16;;;;;;;8.10;4.50;;;1.60;73.40;;;;;;4996334;28;20037;-80
2024/01/21 08:04:42;;;;;;;8.20;4.90;;;1.60;73.80;;;;;;4996310;28;20148;-82
2024/01/21 08:07:08;;;;;;;8.27;5.10;;;1.50;73.90;;;;;;4995930;28;20397;-82
2024/01/21 08:09:34;;;;;;;8.95;5.65;;;1.60;74.50;;;;;;5012303;28;20042;-82
2024/01/21 08:12:00;;;;;;;9.20;5.50;;;1.50;74.40;;;;;;4995934;28;20064;-82
2024/01/21 08:14:26;;;;;;;10.23;5.97;;;1.50;74.20;;;;;;5012562;28;20042;-80
2024/01/21 08:16:52;;;;;;;9.02;6.03;;;1.60;74.10;;;;;;5012427;28;20491;-82
2024/01/21 08:19:19;;;;;;;8.02;5.10;;;1.50;74.80;;;;;;4996340;28;20053;-81
2024/01/21 08:21:46;;;;;;;10.48;6.07;;;1.50;75.80;;;;;;4979000;28;20627;-82
2024/01/21 08:24:12;;;;;;;10.45;5.88;;;1.50;76.10;;;;;;4986634;28;20050;-83
2024/01/21 08:26:38;;;;;;;8.60;5.53;;;1.50;76.80;;;;;;4972128;28;20477;-82
2024/01/21 08:29:04;;;;;;;8.70;5.72;;;1.50;77.80;;;;;;4988608;28;20089;-83
2024/01/21 08:31:30;;;;;;;8.88;5.65;;;1.50;77.60;;;;;;5003439;28;20120;-83
2024/01/21 08:33:56;;;;;;;11.32;6.10;;;1.50;77.20;;;;;;4988015;28;20046;-82
2024/01/21 08:36:21;;;;;;;8.63;4.93;;;1.60;77.10;;;;;;4988322;28;20049;-82
2024/01/21 08:38:47;;;;;;;9.35;5.63;;;1.60;76.80;;;;;;5002602;28;20498;-83
2024/01/21 08:41:13;;;;;;;11.93;5.50;;;1.60;77.70;;;;;;4986108;28;20777;-81
2024/01/21 08:43:38;;;;;;;9.07;5.43;;;1.60;77.10;;;;;;4988237;28;20053;-82
2024/01/21 08:46:04;;;;;;;8.65;5.22;;;1.60;77.90;;;;;;4987827;28;20061;-83
2024/01/21 08:48:30;;;;;;;10.00;6.18;;;1.70;78.10;;;;;;4988049;28;20045;-82
2024/01/21 08:50:56;;;;;;;10.35;6.28;;;1.70;78.00;;;;;;4986377;28;20046;-80
2024/01/21 08:53:22;;;;;;;8.20;5.35;;;1.60;78.30;;;;;;4988380;28;20052;-79
2024/01/21 08:55:48;;;;;;;6.50;4.32;;;1.70;77.80;;;;;;4988324;28;20046;-81
2024/01/21 08:58:14;;;;;;;9.70;5.88;;;1.70;77.40;;;;;;4988591;28;20025;-82
2024/01/21 09:00:39;;;;;;;8.70;5.68;;;1.80;77.60;;;;;;4970825;28;20785;-81
2024/01/21 09:03:05;;;;;;;7.97;5.47;;;1.80;77.50;;;;;;5004410;28;20046;-81
2024/01/21 09:05:31;;;;;;;10.15;6.80;;;1.80;77.30;;;;;;4987933;28;20216;-82
2024/01/21 09:07:56;;;;;;;8.45;5.10;;;1.80;77.30;;;;;;4987773;28;20101;-82
2024/01/21 09:10:24;;;;;;;10.77;5.97;;;1.90;76.90;;;;;;4986618;28;20461;-82
2024/01/21 09:12:49;;;;;;;9.45;6.47;;;1.90;77.70;;;;;;5002908;28;20046;-80
2024/01/21 09:15:15;;;;;;;9.35;6.25;;;2.00;77.50;;;;;;4988221;28;20088;-80
2024/01/21 09:17:41;;;;;;;11.65;6.70;;;2.10;77.40;;;;;;4988795;28;20037;-80
2024/01/21 09:20:07;;;;;;;11.10;5.78;;;2.10;77.60;;;;;;4981415;28;20399;-81
2024/01/21 09:22:33;;;;;;;11.32;6.07;;;2.20;77.10;;;;;;4993969;28;20045;-79
2024/01/21 09:24:59;;;;;;;9.77;6.15;;;2.20;77.10;;;;;;4990613;28;20096;-82
2024/01/21 09:27:25;;;;;;;11.20;5.78;;;2.30;77.30;;;;;;4975480;28;20038;-81
2024/01/21 09:29:50;;;;;;;9.93;6.22;;;2.20;77.50;;;;;;4985827;28;20046;-82
2024/01/21 09:32:17;;;;;;;9.05;5.43;;;2.30;77.80;;;;;;4992185;28;20457;-82
2024/01/21 09:34:43;;;;;;;10.23;7.13;;;2.20;78.00;;;;;;4992070;28;20136;-81
2024/01/21 09:37:09;;;;;;;11.50;7.07;;;2.20;78.00;;;;;;4984011;28;20415;-81
2024/01/21 09:39:35;;;;;;;8.32;5.47;;;2.20;78.10;;;;;;5006459;28;20061;-81
2024/01/21 09:42:07;;;;;;;10.57;6.63;;;2.20;78.30;;;;;;4991016;28;20051;-80
2024/01/21 09:44:33;;;;;;;9.40;7.07;;;2.20;78.70;;;;;;5008049;28;20053;-81
2024/01/21 09:47:00;;;;;;;10.82;7.07;;;2.20;79.30;;;;;;4992079;28;20052;-82
2024/01/21 09:49:26;;;;;;;13.27;7.60;;;2.30;79.10;;;;;;4991564;28;20054;-86
2024/01/21 09:51:53;;;;;;;11.00;6.18;;;2.30;79.20;;;;;;4990629;28;20117;-83
2024/01/21 09:54:20;;;;;;;11.55;7.82;;;2.30;79.40;;;;;;4983440;28;20046;-82
2024/01/21 09:56:46;;;;;;;13.07;6.30;;;2.30;79.80;;;;;;4991351;28;20124;-83
2024/01/21 09:59:13;;;;;;;10.82;7.10;;;2.30;79.80;;;;;;4975662;28;20045;-81
2024/01/21 10:01:40;;;;;;;12.88;7.90;;;2.30;79.80;;;;;;4990194;28;20050;-82
2024/01/21 10:04:10;;;;;;;11.85;7.28;;;2.30;80.20;;;;;;4983986;28;20498;-82
2024/01/21 10:06:36;;;;;;;12.77;7.15;;;2.30;80.20;;;;;;5007415;28;20561;-82
2024/01/21 10:09:12;;;;;;;11.20;7.03;;;2.30;80.40;;;;;;4990964;28;20080;-81
2024/01/21 10:11:38;;;;;;;9.35;6.32;;;2.30;80.70;;;;;;5005955;28;20050;-80
2024/01/21 10:14:04;;;;;;;12.48;7.65;;;2.30;80.90;;;;;;4990784;28;20038;-80
2024/01/21 10:16:30;;;;;;;12.57;7.53;;;2.30;81.40;;;;;;5007159;28;20046;-81
2024/01/21 10:18:56;;;;;;;14.18;8.80;;;2.40;81.60;;;;;;4989471;28;20050;-81
2024/01/21 10:21:22;;;;;;;13.38;8.57;;;2.40;81.60;;;;;;4995517;28;20450;-81
2024/01/21 10:23:48;;;;;;;10.02;6.50;;;2.50;82.30;;;;;;4974756;28;20088;-81
2024/01/21 10:26:13;;;;;;;11.13;8.05;;;2.50;82.30;;;;;;4995508;28;20041;-82
2024/01/21 10:28:39;;;;;;;12.43;6.93;;;2.50;82.20;;;;;;4987898;28;20514;-81
2024/01/21 10:31:08;;;;;;;13.68;9.10;;;2.60;82.60;;;;;;4975830;28;20117;-82
2024/01/21 10:33:34;;;;;;;13.07;8.60;;;2.60;82.60;;;;;;5013307;28;20112;-81
2024/01/21 10:36:01;;;;;;;13.48;8.43;;;2.60;82.60;;;;;;4997459;28;20499;-81
2024/01/21 10:38:36;;;;;;;12.93;7.82;;;2.60;82.90;;;;;;5014092;28;20041;-83
2024/01/21 10:41:03;;;;;;;14.07;9.10;;;2.60;83.40;;;;;;5014274;28;20041;-80
2024/01/21 10:43:31;;;;;;;12.82;8.25;;;2.60;83.40;;;;;;4998104;28;20156;-81
2024/01/21 10:45:58;;;;;;;12.73;8.43;;;2.60;83.90;;;;;;5014266;28;20438;-83
2024/01/21 10:48:25;;;;;;;12.90;7.82;;;2.70;84.10;;;;;;4997729;28;20091;-82
2024/01/21 10:50:53;;;;;;;11.52;7.18;;;2.70;84.10;;;;;;4997589;28;20049;-82
2024/01/21 10:53:20;;;;;;;9.02;5.97;;;2.70;84.30;;;;;;5014191;28;20049;-82
2024/01/21 10:55:47;;;;;;;12.88;7.90;;;2.80;84.30;;;;;;5013936;28;20041;-82
2024/01/21 10:58:13;;;;;;;12.30;7.32;;;2.80;84.40;;;;;;4997854;28;20045;-82
2024/01/21 11:00:40;;;;;;;12.75;8.20;;;2.80;84.80;;;;;;5014021;28;20037;-81
2024/01/21 11:03:23;;;;;;;10.98;7.72;;;2.90;84.80;;;;;;4997547;28;20050;-83
2024/01/21 11:06:01;;;;;;;12.30;8.45;;;2.90;84.50;;;;;;4997481;28;20066;-82
2024/01/21 11:08:27;;;;;;;12.63;7.95;;;2.90;85.00;;;;;;5013709;28;20042;-83
2024/01/21 11:11:08;;;;;;;13.55;8.15;;;2.90;85.00;;;;;;4997586;28;20513;-82
2024/01/21 11:13:41;;;;;;;13.25;7.85;;;2.90;84.80;;;;;;4997257;28;20474;-81
2024/01/21 11:16:11;;;;;;;13.85;8.98;;;2.90;85.50;;;;;;5013767;28;20394;-82
2024/01/21 11:18:37;;;;;;;15.93;9.10;;;2.90;85.90;;;;;;5013579;28;20041;-82
2024/01/21 11:21:03;;;;;;;13.90;8.73;;;2.90;86.60;;;;;;5013489;28;20042;-81
2024/01/21 11:23:29;;;;;;;12.05;8.95;;;2.90;86.90;;;;;;4997268;28;20056;-84
2024/01/21 11:25:55;;;;;;;12.73;8.48;;;2.80;87.20;;;;;;5013562;28;20046;-82
2024/01/21 11:28:28;;;;;;;15.68;9.43;;;2.90;87.10;;;;;;4997738;28;20037;-82
2024/01/21 11:31:07;;;;;;;14.52;9.25;;;3.00;87.10;;;;;;5013817;28;20042;-82
2024/01/21 11:33:32;;;;;;;14.18;8.63;;;3.00;87.00;;;;;;5013685;28;20034;-81
2024/01/21 11:36:00;;;;;;;13.52;8.63;;;3.00;87.70;;;;;;4997484;28;20049;-82
2024/01/21 11:38:26;;;;;;;14.27;9.25;;;3.00;87.30;;;;;;5013591;28;20042;-81
2024/01/21 11:41:04;;;;;;;20.08;9.27;;;3.00;87.40;;;;;;5013143;28;20577;-80
2024/01/21 11:43:33;;;;;;;15.60;9.35;;;3.00;88.70;;;;;;5013554;28;20041;-80
2024/01/21 11:46:03;;;;;;;15.90;9.07;;;3.00;89.20;;;;;;5014124;28;20038;-80
2024/01/21 11:48:30;;;;;;;17.90;10.75;;;3.10;88.60;;;;;;5013249;28;20046;-81
2024/01/21 11:50:57;;;;;;;16.73;10.35;;;3.10;89.60;;;;;;4997350;28;20038;-82
2024/01/21 11:53:23;;;;;;;16.98;10.55;;;3.10;89.80;;;;;;4981027;28;20140;-82
2024/01/21 11:55:50;;;;;;;19.58;11.77;;;3.10;89.40;;;;;;5013293;28;20513;-80
2024/01/21 11:58:17;;;;;;;20.63;14.80;;;3.10;89.80;;;;;;4981337;28;20046;-81
2024/01/21 12:00:43;;;;;;;20.60;12.80;;;3.10;90.10;;;;;;5013349;28;20537;-81
2024/01/21 12:03:09;;;;;;;29.00;14.30;;;3.20;90.00;;;;;;4980969;28;20081;-82
2024/01/21 12:05:39;;;;;;;18.75;11.98;;;3.20;90.00;;;;;;4980656;28;20085;-83
2024/01/21 12:08:05;;;;;;;22.15;13.25;;;3.30;90.60;;;;;;5018897;28;20125;-82
2024/01/21 12:10:31;;;;;;;16.67;11.35;;;3.30;91.10;;;;;;4997235;28;20482;-82
2024/01/21 12:12:57;;;;;;;19.92;11.40;;;3.30;90.50;;;;;;4980831;28;20069;-80
2024/01/21 12:15:24;;;;;;;20.38;11.65;;;3.40;90.90;;;;;;4996899;28;20398;-82
2024/01/21 12:17:56;;;;;;;19.38;10.98;;;3.30;91.20;;;;;;4996617;28;20124;-82
2024/01/21 12:20:22;;;;;;;14.23;10.18;;;3.30;91.30;;;;;;4996842;28;20450;-81
2024/01/21 12:22:49;;;;;;;16.23;11.48;;;3.30;91.30;;;;;;4996541;28;20041;-80
2024/01/21 12:25:17;;;;;;;20.88;12.43;;;3.40;91.10;;;;;;4997080;28;20042;-82
2024/01/21 12:27:46;;;;;;;29.15;20.00;;;3.40;91.50;;;;;;4996503;28;20482;-80
2024/01/21 12:30:13;;;;;;;26.25;15.45;;;3.40;91.40;;;;;;4993007;28;20050;-81
2024/01/21 12:32:44;;;;;;;26.92;17.00;;;3.40;91.60;;;;;;4977126;28;20410;-82
2024/01/21 12:35:09;;;;;;;36.58;21.65;;;3.40;91.70;;;;;;4993355;28;20036;-81
2024/01/21 12:37:36;;;;;;;47.25;24.70;;;3.50;91.50;;;;;;4976838;28;20692;-82
2024/01/21 12:40:01;;;;;;;23.60;13.40;;;3.50;91.70;;;;;;4976880;28;20042;-83
2024/01/21 12:42:27;;;;;;;31.63;17.38;;;3.50;91.80;;;;;;4993417;28;20038;-83
2024/01/21 12:44:53;;;;;;;39.13;19.48;;;3.50;91.80;;;;;;4992966;28;20053;-82